createdAt,value
2022-08-02T00:00:12.083Z,48.36
2022-08-02T00:02:38.833Z,48.72
2022-08-02T00:05:06.668Z,48.83
2022-08-02T00:07:39.014Z,49.05
2022-08-02T00:10:10.075Z,49.22
2022-08-02T00:12:37.071Z,48.98
2022-08-02T00:15:04.994Z,49.61
2022-08-02T00:17:32.101Z,49.33
2022-08-02T00:19:58.759Z,49.80
2022-08-02T00:22:25.401Z,49.21
2022-08-02T00:24:52.195Z,49.51
2022-08-02T00:27:18.961Z,49.71
2022-08-02T00:29:53.006Z,49.78
2022-08-02T00:32:20.958Z,49.89
2022-08-02T00:34:48.268Z,50.02
2022-08-02T00:37:14.944Z,50.36
2022-08-02T00:39:45.218Z,49.95
2022-08-02T00:42:15.299Z,50.04
2022-08-02T00:44:42.928Z,50.20
2022-08-02T00:47:10.008Z,50.47
2022-08-02T00:49:37.472Z,50.61
2022-08-02T00:52:05.101Z,50.45
2022-08-02T00:54:31.912Z,50.90
2022-08-02T00:56:58.650Z,50.60
2022-08-02T00:59:25.365Z,50.63
2022-08-02T01:01:55.984Z,50.90
2022-08-02T01:04:29.837Z,51.04
2022-08-02T01:07:00.193Z,51.16
2022-08-02T01:09:27.329Z,51.40
2022-08-02T01:11:54.048Z,51.49
2022-08-02T01:14:23.125Z,51.26
2022-08-02T01:17:02.281Z,51.83
2022-08-02T01:19:48.597Z,51.88
2022-08-02T01:22:59.611Z,52.16
2022-08-02T01:25:45.078Z,52.15
2022-08-02T01:28:26.965Z,52.47
2022-08-02T01:31:16.767Z,51.94
2022-08-02T01:33:49.173Z,52.49
2022-08-02T01:36:18.953Z,52.23
2022-08-02T01:38:48.939Z,52.36
2022-08-02T01:41:19.989Z,52.46
2022-08-02T01:43:49.672Z,52.64
2022-08-02T01:46:19.070Z,52.66
2022-08-02T01:48:47.773Z,52.57
2022-08-02T01:51:17.714Z,53.04
2022-08-02T01:53:47.559Z,53.32
2022-08-02T01:56:16.457Z,53.40
2022-08-02T01:58:45.445Z,53.29
2022-08-02T02:01:16.012Z,53.95
2022-08-02T02:03:47.635Z,53.85
2022-08-02T02:06:16.383Z,53.94
2022-08-02T02:08:44.363Z,53.77
2022-08-02T02:12:06.059Z,53.93
2022-08-02T02:14:00.846Z,54.16
2022-08-02T02:16:29.198Z,54.06
2022-08-02T02:18:56.222Z,54.20
2022-08-02T02:21:23.262Z,54.45
2022-08-02T02:23:50.712Z,54.65
2022-08-02T02:26:29.617Z,54.61
2022-08-02T02:29:02.105Z,54.63
2022-08-02T02:31:32.805Z,54.76
2022-08-02T02:34:03.315Z,54.99
2022-08-02T02:36:33.437Z,54.99
2022-08-02T02:39:03.499Z,55.09
2022-08-02T02:41:30.464Z,55.24
2022-08-02T02:44:02.378Z,55.35
2022-08-02T02:46:34.161Z,55.41
2022-08-02T02:49:01.290Z,55.15
2022-08-02T02:51:29.550Z,55.59
2022-08-02T02:54:33.347Z,56.46
2022-08-02T02:56:44.580Z,55.58
2022-08-02T02:59:13.849Z,55.77
2022-08-02T03:01:57.335Z,55.97
2022-08-02T03:04:27.067Z,56.02
2022-08-02T03:06:54.051Z,56.18
2022-08-02T03:09:20.918Z,56.25
2022-08-02T03:11:48.640Z,56.56
2022-08-02T03:14:16.028Z,56.55
2022-08-02T03:16:45.255Z,57.03
2022-08-02T03:19:12.372Z,56.92
2022-08-02T03:21:39.074Z,57.01
2022-08-02T03:24:07.323Z,57.10
2022-08-02T03:26:34.825Z,57.15
2022-08-02T03:29:10.059Z,57.23
2022-08-02T03:31:41.914Z,57.45
2022-08-02T03:34:08.789Z,57.47
2022-08-02T03:36:36.483Z,57.67
2022-08-02T03:39:05.455Z,57.53
2022-08-02T03:41:33.276Z,57.74
2022-08-02T03:44:01.725Z,57.96
2022-08-02T03:46:29.277Z,57.92
2022-08-02T03:48:56.981Z,58.29
2022-08-02T03:51:24.170Z,58.16
2022-08-02T03:53:51.107Z,58.21
2022-08-02T03:56:18.712Z,58.43
2022-08-02T03:58:49.274Z,58.55
2022-08-02T04:01:17.028Z,58.58
2022-08-02T04:03:44.202Z,58.83
2022-08-02T04:06:11.224Z,59.48
2022-08-02T04:08:38.988Z,59.24
2022-08-02T04:11:25.259Z,59.35
2022-08-02T04:13:56.488Z,59.27
2022-08-02T04:16:31.599Z,59.58
2022-08-02T04:19:02.400Z,59.59
2022-08-02T04:21:48.406Z,59.94
2022-08-02T04:24:24.493Z,59.85
2022-08-02T04:27:19.459Z,60.00
2022-08-02T04:29:50.023Z,60.30
2022-08-02T04:32:18.292Z,60.48
2022-08-02T04:35:11.269Z,61.93
2022-08-02T04:37:33.772Z,60.41
2022-08-02T04:40:00.869Z,60.81
2022-08-02T04:42:27.481Z,61.23
2022-08-02T04:44:54.446Z,61.25
2022-08-02T04:47:40.007Z,61.39
2022-08-02T04:50:09.364Z,61.32
2022-08-02T04:52:36.091Z,61.57
2022-08-02T04:55:02.807Z,61.77
2022-08-02T04:57:52.567Z,61.68
2022-08-02T05:00:20.416Z,62.01
2022-08-02T05:02:47.492Z,62.08
2022-08-02T05:05:14.878Z,61.98
2022-08-02T05:07:41.695Z,62.19
2022-08-02T05:10:08.677Z,62.46
2022-08-02T05:12:35.343Z,62.90
2022-08-02T05:15:02.074Z,62.81
2022-08-02T05:17:28.765Z,62.87
2022-08-02T05:19:55.505Z,63.17
2022-08-02T05:22:22.243Z,63.18
2022-08-02T05:24:48.977Z,63.39
2022-08-02T05:27:16.520Z,63.37
2022-08-02T05:29:51.230Z,63.62
2022-08-02T05:32:20.603Z,63.59
2022-08-02T05:34:50.506Z,63.72
2022-08-02T05:37:17.602Z,63.81
2022-08-02T05:39:55.760Z,63.73
2022-08-02T05:42:23.721Z,64.25
2022-08-02T05:44:50.814Z,63.98
2022-08-02T05:47:17.714Z,64.04
2022-08-02T05:49:44.476Z,64.40
2022-08-02T05:52:17.245Z,64.30
2022-08-02T05:54:46.597Z,64.79
2022-08-02T05:57:43.398Z,65.21
2022-08-02T06:00:13.869Z,64.56
2022-08-02T06:02:43.647Z,64.60
2022-08-02T06:05:12.867Z,64.83
2022-08-02T06:07:44.784Z,64.84
2022-08-02T06:10:13.750Z,64.75
2022-08-02T06:12:51.953Z,65.11
2022-08-02T06:15:19.540Z,66.04
2022-08-02T06:17:47.976Z,64.78
2022-08-02T06:20:16.296Z,64.76
2022-08-02T06:22:44.557Z,65.99
2022-08-02T06:25:51.028Z,64.90
2022-08-02T06:28:02.463Z,64.83
2022-08-02T06:30:31.729Z,64.96
2022-08-02T06:33:00.301Z,65.03
2022-08-02T06:35:40.363Z,65.36
2022-08-02T06:38:10.031Z,65.42
2022-08-02T06:41:16.945Z,65.43
2022-08-02T06:44:13.757Z,65.74
2022-08-02T06:47:11.701Z,65.53
2022-08-02T06:49:52.486Z,65.32
2022-08-02T06:52:22.290Z,65.24
2022-08-02T06:54:52.327Z,65.61
2022-08-02T06:57:18.991Z,65.66
2022-08-02T06:59:45.778Z,65.56
2022-08-02T07:02:12.890Z,65.84
2022-08-02T07:04:39.795Z,65.98
2022-08-02T07:07:06.537Z,65.89
2022-08-02T07:09:33.246Z,65.98
2022-08-02T07:12:00.025Z,66.21
2022-08-02T07:14:26.903Z,65.87
2022-08-02T07:16:53.680Z,65.87
2022-08-02T07:19:20.313Z,65.97
2022-08-02T07:21:57.744Z,65.88
2022-08-02T07:24:27.685Z,66.04
2022-08-02T07:27:10.478Z,65.86
2022-08-02T07:29:46.661Z,65.78
2022-08-02T07:32:21.389Z,65.76
2022-08-02T07:34:51.159Z,65.73
2022-08-02T07:37:35.942Z,65.80
2022-08-02T07:40:15.356Z,66.00
2022-08-02T07:42:48.661Z,65.83
2022-08-02T07:45:15.391Z,66.68
2022-08-02T07:47:44.028Z,65.50
2022-08-02T07:50:12.970Z,65.59
2022-08-02T07:52:40.757Z,65.79
2022-08-02T07:55:09.515Z,65.69
2022-08-02T07:57:37.003Z,65.88
2022-08-02T08:00:06.403Z,65.40
2022-08-02T08:02:33.055Z,65.46
2022-08-02T08:04:59.797Z,65.87
2022-08-02T08:07:26.541Z,65.59
2022-08-02T08:09:56.434Z,65.45
2022-08-02T08:12:23.534Z,65.34
2022-08-02T08:14:50.177Z,65.68
2022-08-02T08:17:17.360Z,65.67
2022-08-02T08:19:52.089Z,65.54
2022-08-02T08:22:22.972Z,65.61
2022-08-02T08:24:50.320Z,65.42
2022-08-02T08:27:18.519Z,65.06
2022-08-02T08:29:45.421Z,65.53
2022-08-02T08:32:17.617Z,64.98
2022-08-02T08:34:48.685Z,64.15
2022-08-02T08:37:18.288Z,64.50
2022-08-02T08:39:56.900Z,64.55
2022-08-02T08:42:31.039Z,64.16
2022-08-02T08:44:59.273Z,64.00
2022-08-02T08:47:39.039Z,64.87
2022-08-02T08:50:22.864Z,64.44
2022-08-02T08:53:01.228Z,64.13
2022-08-02T08:55:30.537Z,63.88
2022-08-02T08:57:59.244Z,63.89
2022-08-02T09:00:27.457Z,63.93
2022-08-02T09:02:54.106Z,64.25
2022-08-02T09:05:20.740Z,63.99
2022-08-02T09:07:49.276Z,63.81
2022-08-02T09:10:45.784Z,64.01
2022-08-02T09:13:37.651Z,63.57
2022-08-02T09:16:13.052Z,63.30
2022-08-02T09:18:46.152Z,63.23
2022-08-02T09:21:15.748Z,63.07
2022-08-02T09:23:48.198Z,62.91
2022-08-02T09:26:17.402Z,63.17
2022-08-02T09:28:46.903Z,63.20
2022-08-02T09:31:16.002Z,63.23
2022-08-02T09:33:44.554Z,63.17
2022-08-02T09:36:16.292Z,62.47
2022-08-02T09:38:57.921Z,62.68
2022-08-02T09:41:45.650Z,62.44
2022-08-02T09:44:16.139Z,61.97
2022-08-02T09:46:46.972Z,61.90
2022-08-02T09:49:16.735Z,61.82
2022-08-02T09:51:47.166Z,61.78
2022-08-02T09:54:23.328Z,61.82
2022-08-02T09:56:52.886Z,61.63
2022-08-02T09:59:21.701Z,61.68
2022-08-02T10:01:51.034Z,61.73
2022-08-02T10:04:34.315Z,61.63
2022-08-02T10:07:04.683Z,61.64
2022-08-02T10:09:32.504Z,61.22
2022-08-02T10:11:59.987Z,61.30
2022-08-02T10:14:28.095Z,61.34
2022-08-02T10:16:58.130Z,61.29
2022-08-02T10:20:00.192Z,60.87
2022-08-02T10:22:14.871Z,61.48
2022-08-02T10:24:47.633Z,61.40
2022-08-02T10:27:20.775Z,60.73
2022-08-02T10:29:54.956Z,61.20
2022-08-02T10:32:39.925Z,60.56
2022-08-02T10:35:19.969Z,60.62
2022-08-02T10:38:04.259Z,60.72
2022-08-02T10:40:47.259Z,60.52
2022-08-02T10:43:36.477Z,60.59
2022-08-02T10:46:21.640Z,60.35
2022-08-02T10:49:38.675Z,59.99
2022-08-02T10:52:02.782Z,59.82
2022-08-02T10:54:33.302Z,59.89
2022-08-02T10:57:01.320Z,59.52
2022-08-02T10:59:37.126Z,59.29
2022-08-02T11:02:06.190Z,59.02
2022-08-02T11:04:42.258Z,59.22
2022-08-02T11:07:17.374Z,59.13
2022-08-02T11:09:51.277Z,58.99
2022-08-02T11:12:20.096Z,58.92
2022-08-02T11:15:04.003Z,58.60
2022-08-02T11:17:54.432Z,58.91
2022-08-02T11:20:23.178Z,58.95
2022-08-02T11:22:52.771Z,58.41
2022-08-02T11:25:22.389Z,58.60
2022-08-02T11:27:52.360Z,58.58
2022-08-02T11:30:20.350Z,58.14
2022-08-02T11:32:58.677Z,58.63
2022-08-02T11:35:36.441Z,57.71
2022-08-02T11:38:20.704Z,57.77
2022-08-02T11:40:49.136Z,57.98
2022-08-02T11:43:17.887Z,57.65
2022-08-02T11:45:44.825Z,57.79
2022-08-02T11:48:11.520Z,57.51
2022-08-02T11:50:38.386Z,57.43
2022-08-02T11:53:17.752Z,56.98
2022-08-02T11:55:44.502Z,57.38
2022-08-02T11:58:11.802Z,57.23
2022-08-02T12:00:38.899Z,57.55
2022-08-02T12:03:06.693Z,57.25
2022-08-02T12:06:02.953Z,57.61
2022-08-02T12:08:25.402Z,57.32
2022-08-02T12:10:53.148Z,57.14
2022-08-02T12:13:20.118Z,57.22
2022-08-02T12:15:47.497Z,56.87
2022-08-02T12:18:35.059Z,56.68
2022-08-02T12:21:02.516Z,56.86
2022-08-02T12:23:30.189Z,56.38
2022-08-02T12:26:03.847Z,56.08
2022-08-02T12:28:34.847Z,56.14
2022-08-02T12:31:02.361Z,55.95
2022-08-02T12:33:45.792Z,56.12
2022-08-02T12:36:39.960Z,55.75
2022-08-02T12:39:12.387Z,56.36
2022-08-02T12:41:39.177Z,56.24
2022-08-02T12:44:21.579Z,55.85
2022-08-02T12:46:59.528Z,56.00
2022-08-02T12:49:27.328Z,55.71
2022-08-02T12:51:57.729Z,55.77
2022-08-02T12:54:40.251Z,55.08
2022-08-02T12:57:14.645Z,55.13
2022-08-02T12:59:45.216Z,55.08
2022-08-02T13:02:14.637Z,54.92
2022-08-02T13:04:41.814Z,54.92
2022-08-02T13:07:17.354Z,54.75
2022-08-02T13:09:48.307Z,54.79
2022-08-02T13:12:15.676Z,54.74
2022-08-02T13:14:43.242Z,54.87
2022-08-02T13:17:10.484Z,54.75
2022-08-02T13:19:38.565Z,54.96
2022-08-02T13:22:05.892Z,55.21
2022-08-02T13:24:39.621Z,54.80
2022-08-02T13:27:09.347Z,54.85
2022-08-02T13:29:37.078Z,54.78
2022-08-02T13:32:04.175Z,54.76
2022-08-02T13:34:30.948Z,54.75
2022-08-02T13:36:57.696Z,54.80
2022-08-02T13:39:24.546Z,54.41
2022-08-02T13:41:51.707Z,54.50
2022-08-02T13:44:18.373Z,54.56
2022-08-02T13:46:46.172Z,54.44
2022-08-02T13:49:18.495Z,54.47
2022-08-02T13:51:49.222Z,54.55
2022-08-02T13:54:16.501Z,54.66
2022-08-02T13:56:43.612Z,54.64
2022-08-02T13:59:23.643Z,54.68
2022-08-02T14:02:09.478Z,54.75
2022-08-02T14:04:38.843Z,54.81
2022-08-02T14:07:05.825Z,54.70
2022-08-02T14:09:32.661Z,54.77
2022-08-02T14:12:00.490Z,54.55
2022-08-02T14:14:27.284Z,54.27
2022-08-02T14:16:54.074Z,54.54
2022-08-02T14:19:21.975Z,54.50
2022-08-02T14:21:49.547Z,54.69
2022-08-02T14:24:17.430Z,54.80
2022-08-02T14:26:45.780Z,54.76
2022-08-02T14:29:13.079Z,54.78
2022-08-02T14:31:43.957Z,54.79
2022-08-02T14:34:11.418Z,54.57
2022-08-02T14:36:39.225Z,54.93
2022-08-02T14:39:06.150Z,54.85
2022-08-02T14:41:54.742Z,54.74
2022-08-02T14:44:20.896Z,54.85
2022-08-02T14:46:47.663Z,54.80
2022-08-02T14:49:25.121Z,54.64
2022-08-02T14:51:53.888Z,54.90
2022-08-02T14:54:20.857Z,54.96
2022-08-02T14:56:56.098Z,55.00
2022-08-02T14:59:22.931Z,55.04
2022-08-02T15:01:49.797Z,55.14
2022-08-02T15:04:16.770Z,55.20
2022-08-02T15:06:43.483Z,55.39
2022-08-02T15:09:10.129Z,55.26
2022-08-02T15:11:47.671Z,55.41
2022-08-02T15:14:21.895Z,55.65
2022-08-02T15:16:58.604Z,55.60
2022-08-02T15:19:41.589Z,55.35
2022-08-02T15:22:16.828Z,55.65
2022-08-02T15:24:46.431Z,55.62
2022-08-02T15:27:14.546Z,55.63
2022-08-02T15:29:42.957Z,55.77
2022-08-02T15:32:10.193Z,55.78
2022-08-02T15:34:37.218Z,55.68
2022-08-02T15:37:04.292Z,55.70
2022-08-02T15:39:31.329Z,55.72
2022-08-02T15:41:58.191Z,55.92
2022-08-02T15:44:25.306Z,55.71
2022-08-02T15:46:53.446Z,56.13
2022-08-02T15:49:20.983Z,55.95
2022-08-02T15:51:47.936Z,55.99
2022-08-02T15:54:14.595Z,56.07
2022-08-02T15:56:41.248Z,56.26
2022-08-02T15:59:08.269Z,56.10
2022-08-02T16:01:37.660Z,56.47
2022-08-02T16:04:07.218Z,56.23
2022-08-02T16:06:34.930Z,56.41
2022-08-02T16:09:01.841Z,56.59
2022-08-02T16:11:28.867Z,56.97
2022-08-02T16:13:55.800Z,56.59
2022-08-02T16:16:24.302Z,56.38
2022-08-02T16:18:51.413Z,56.41
2022-08-02T16:21:19.471Z,56.50
2022-08-02T16:24:01.539Z,56.69
2022-08-02T16:26:34.372Z,56.79
2022-08-02T16:29:02.295Z,56.69
2022-08-02T16:31:29.136Z,56.47
2022-08-02T16:33:57.074Z,55.88
2022-08-02T16:36:25.816Z,55.88
2022-08-02T16:38:53.981Z,55.61
2022-08-02T16:41:21.179Z,55.80
2022-08-02T16:43:48.136Z,55.57
2022-08-02T16:46:15.274Z,55.82
2022-08-02T16:48:51.096Z,55.73
2022-08-02T16:51:19.593Z,55.76
2022-08-02T16:53:59.983Z,56.29
2022-08-02T16:56:30.469Z,56.22
2022-08-02T16:58:59.607Z,56.20
2022-08-02T17:01:27.414Z,56.24
2022-08-02T17:03:56.925Z,56.27
2022-08-02T17:06:26.376Z,55.96
2022-08-02T17:08:56.384Z,56.45
2022-08-02T17:11:23.843Z,56.03
2022-08-02T17:13:51.929Z,56.19
2022-08-02T17:16:20.332Z,56.14
2022-08-02T17:18:54.206Z,55.84
2022-08-02T17:21:20.943Z,55.33
2022-08-02T17:24:08.414Z,55.05
2022-08-02T17:26:36.103Z,55.11
2022-08-02T17:29:15.888Z,55.27
2022-08-02T17:32:05.689Z,54.43
2022-08-02T17:34:32.267Z,53.84
2022-08-02T17:37:00.410Z,53.79
2022-08-02T17:39:33.817Z,53.24
2022-08-02T17:42:02.874Z,52.89
2022-08-02T17:44:37.100Z,53.27
2022-08-02T17:47:11.865Z,52.34
2022-08-02T17:52:51.673Z,51.84
2022-08-02T17:55:14.658Z,52.21
2022-08-02T17:57:57.740Z,52.40
2022-08-02T18:00:32.076Z,52.80
2022-08-02T18:03:05.711Z,53.13
2022-08-02T18:05:55.234Z,54.04
2022-08-02T18:08:24.110Z,53.82
2022-08-02T18:10:52.776Z,54.34
2022-08-02T18:13:19.792Z,54.53
2022-08-02T18:15:46.845Z,54.62
2022-08-02T18:18:16.885Z,54.94
2022-08-02T18:20:46.009Z,54.97
2022-08-02T18:23:13.419Z,54.96
2022-08-02T18:25:46.753Z,55.27
2022-08-02T18:28:15.757Z,55.35
2022-08-02T18:30:43.344Z,55.26
2022-08-02T18:33:57.395Z,55.27
2022-08-02T18:35:57.257Z,55.62
2022-08-02T18:38:25.049Z,55.59
2022-08-02T18:40:53.791Z,55.76
2022-08-02T18:43:25.624Z,55.99
2022-08-02T18:46:05.884Z,55.89
2022-08-02T18:48:46.172Z,56.04
2022-08-02T18:51:14.660Z,56.28
2022-08-02T18:53:42.916Z,56.32
2022-08-02T18:56:19.760Z,56.62
2022-08-02T18:58:50.915Z,56.52
2022-08-02T19:01:32.432Z,56.53
2022-08-02T19:04:03.077Z,56.64
2022-08-02T19:06:30.435Z,57.12
2022-08-02T19:09:05.760Z,56.92
2022-08-02T19:11:41.438Z,56.98
2022-08-02T19:14:24.106Z,57.06
2022-08-02T19:16:59.622Z,57.04
2022-08-02T19:19:28.983Z,57.13
2022-08-02T19:22:26.522Z,57.21
2022-08-02T19:24:44.493Z,57.14
2022-08-02T19:27:14.837Z,57.46
2022-08-02T19:29:50.881Z,57.48
2022-08-02T19:32:41.213Z,57.40
2022-08-02T19:37:55.909Z,57.57
2022-08-02T19:40:29.050Z,57.46
2022-08-02T19:45:51.155Z,57.71
2022-08-02T19:48:23.519Z,57.55
2022-08-02T19:50:55.856Z,58.14
2022-08-02T19:53:29.174Z,57.80
2022-08-02T19:56:11.597Z,57.94
2022-08-02T19:58:39.805Z,58.01
2022-08-02T20:01:14.130Z,58.15
2022-08-02T20:03:52.193Z,57.99
2022-08-02T20:06:28.514Z,57.91
2022-08-02T20:08:59.212Z,58.14
2022-08-02T20:11:28.046Z,58.67
2022-08-02T20:13:54.870Z,58.22
2022-08-02T20:16:28.379Z,58.77
2022-08-02T20:19:00.408Z,58.81
2022-08-02T20:21:36.244Z,59.23
2022-08-02T20:24:06.049Z,59.30
2022-08-02T20:26:32.906Z,58.81
2022-08-02T20:29:03.062Z,59.17
2022-08-02T20:31:30.541Z,58.85
2022-08-02T20:36:25.445Z,59.10
2022-08-02T20:38:52.048Z,60.30
2022-08-02T20:41:37.299Z,59.94
2022-08-02T20:44:30.130Z,59.89
2022-08-02T20:46:59.274Z,59.51
2022-08-02T20:49:41.262Z,59.53
2022-08-02T20:52:23.215Z,59.65
2022-08-02T20:54:57.358Z,60.17
2022-08-02T20:57:36.119Z,60.66
2022-08-02T21:00:18.536Z,60.17
2022-08-02T21:03:07.450Z,60.89
2022-08-02T21:05:54.639Z,60.51
2022-08-02T21:08:24.107Z,61.12
2022-08-02T21:10:57.412Z,61.13
2022-08-02T21:13:26.005Z,60.63
2022-08-02T21:15:55.204Z,60.63
2022-08-02T21:18:40.194Z,61.00
2022-08-02T21:21:08.780Z,61.13
2022-08-02T21:23:48.677Z,61.07
2022-08-02T21:26:19.694Z,61.60
2022-08-02T21:29:00.975Z,61.27
2022-08-02T21:31:33.338Z,61.74
2022-08-02T21:34:22.499Z,61.46
2022-08-02T21:36:54.942Z,62.03
2022-08-02T21:39:28.554Z,61.88
2022-08-02T21:41:55.308Z,61.80
2022-08-02T21:44:22.887Z,62.09
2022-08-02T21:46:59.834Z,62.20
2022-08-02T21:50:09.491Z,62.16
2022-08-02T21:52:20.657Z,61.95
2022-08-02T21:54:55.703Z,62.21
2022-08-02T21:57:34.850Z,62.75
2022-08-02T22:00:02.189Z,62.65
2022-08-02T22:02:48.643Z,63.08
2022-08-02T22:05:18.605Z,62.77
2022-08-02T22:07:45.583Z,63.08
2022-08-02T22:10:19.956Z,62.86
2022-08-02T22:12:46.839Z,63.28
2022-08-02T22:15:14.415Z,63.42
2022-08-02T22:17:52.954Z,63.39
2022-08-02T22:20:26.539Z,63.29
2022-08-02T22:23:02.772Z,63.53
2022-08-02T22:25:36.478Z,63.58
2022-08-02T22:28:38.461Z,63.71
2022-08-02T22:31:00.173Z,63.50
2022-08-02T22:34:00.085Z,63.41
2022-08-02T22:36:32.129Z,63.84
2022-08-02T22:39:19.035Z,63.77
2022-08-02T22:42:05.638Z,64.18
2022-08-02T22:44:39.738Z,64.57
2022-08-02T22:47:14.515Z,64.19
2022-08-02T22:49:54.292Z,64.30
2022-08-02T22:52:23.111Z,64.20
2022-08-02T22:54:56.774Z,64.30
2022-08-02T22:57:30.160Z,64.32
2022-08-02T22:58:50.850Z,52.17
2022-08-02T22:58:52.376Z,57.65
2022-08-02T22:59:05.857Z,57.63
2022-08-02T23:00:08.095Z,64.41
2022-08-02T23:02:54.781Z,64.20
2022-08-02T23:05:28.898Z,64.80
2022-08-02T23:07:56.119Z,64.65
2022-08-02T23:10:29.880Z,64.67
2022-08-02T23:12:59.203Z,64.59
2022-08-02T23:15:26.422Z,65.16
2022-08-02T23:18:18.888Z,64.86
2022-08-02T23:20:45.537Z,65.07
2022-08-02T23:23:12.111Z,64.99
2022-08-02T23:25:45.958Z,65.16
2022-08-02T23:28:12.651Z,65.25
2022-08-02T23:30:39.250Z,65.27
2022-08-02T23:33:13.005Z,65.25
2022-08-02T23:35:39.674Z,65.47
2022-08-02T23:38:06.348Z,65.58
2022-08-02T23:40:41.231Z,65.74
2022-08-02T23:43:14.095Z,65.55
2022-08-02T23:45:48.063Z,65.72
2022-08-02T23:48:14.847Z,65.73
2022-08-02T23:50:41.449Z,65.77
2022-08-02T23:53:15.017Z,65.66
2022-08-02T23:55:41.638Z,65.96
2022-08-02T23:58:08.392Z,65.74
